M I D A S
Marine Information and Data Acquisition System
Tripno 1258 of the Zeeleeuw from 2007-02-16 07:38:04 to 2007-02-16 14:00:57
Back to CruiseResearch ActivitiesStationsMapUnderway DataData graphs

EquipmentUnitsComments
TimeDGPSUTC
LatitudeDGPSDM.mWGS84
LongitudeDGPSDM.mWGS84
SpeedMeteo Stationm/sRelative wind speed
DirectionMeteo StationdegRelative wind direction
TemperatureMeteo Stationdeg CelciusAir temperature
PressureMeteo StationPaAtmospheric pressure
HumidityMeteo Station%Relative humidity
Missing or incorrect values are displayed as -999
Metereological data collected by the RV Zeeleeuw from 2007-02-16 07:38:14 to 2007-02-16 14:07:54
                                                                                    Next 1000 lines
Time Latitude Longitude Speed Direction Temperature Pressure Humidity
2007-02-16 07:38:24 51°13.598 2°56.094 5.9 334 6.3 101410 57
2007-02-16 07:38:29 51°13.597 2°56.094 3.1 286 6.3 101410 57
2007-02-16 07:38:34 51°13.597 2°56.094 4.5 338 6.3 101410 57
2007-02-16 07:38:39 51°13.598 2°56.094 5.9 345 6.3 101410 57
2007-02-16 07:38:45 51°13.598 2°56.094 5.1 337 6.3 101400 57
2007-02-16 07:38:50 51°13.598 2°56.094 5.3 354 6.3 101400 57
2007-02-16 07:38:54 51°13.598 2°56.094 5.9 340 6.3 101410 57
2007-02-16 07:39:00 51°13.598 2°56.094 6.3 280 6.3 101410 57
2007-02-16 07:39:04 51°13.598 2°56.094 5.5 344 6.3 101410 57
2007-02-16 07:39:09 51°13.598 2°56.094 6 282 6.3 101410 57
2007-02-16 07:39:14 51°13.598 2°56.094 3.7 333 6.3 101400 57
2007-02-16 07:39:20 51°13.598 2°56.094 2.3 281 6.3 101400 57
2007-02-16 07:39:24 51°13.598 2°56.094 3.1 347 6.3 101400 57
2007-02-16 07:39:29 51°13.598 2°56.094 5.6 282 6.3 101400 57
2007-02-16 07:39:35 51°13.597 2°56.093 6.5 344 6.3 101400 56
2007-02-16 07:39:40 51°13.597 2°56.093 6.9 286 6.3 101400 56
2007-02-16 07:39:44 51°13.597 2°56.093 5 340 6.3 101400 57
2007-02-16 07:39:49 51°13.597 2°56.093 5.5 281 6.3 101400 57
2007-02-16 07:39:55 51°13.597 2°56.094 6.7 337 6.3 101400 57
2007-02-16 07:40:00 51°13.597 2°56.093 5.6 280 6.3 101400 57
2007-02-16 07:40:04 51°13.597 2°56.094 6 350 6.3 101400 56
2007-02-16 07:40:10 51°13.597 2°56.093 6 285 6.3 101400 56
2007-02-16 07:40:14 51°13.597 2°56.093 3.8 330 6.3 101400 57
2007-02-16 07:40:20 51°13.598 2°56.093 3.8 287 6.3 101400 57
2007-02-16 07:40:24 51°13.598 2°56.094 5.1 345 6.3 101400 57
2007-02-16 07:40:29 51°13.598 2°56.094 6 279 6.3 101400 57
2007-02-16 07:40:34 51°13.598 2°56.094 4.5 335 6.3 101400 57
2007-02-16 07:40:39 51°13.598 2°56.094 6.4 287 6.3 101400 57
2007-02-16 07:40:44 51°13.598 2°56.094 5.8 338 6.3 101400 57
2007-02-16 07:40:49 51°13.598 2°56.094 4.5 280 6.3 101400 57
2007-02-16 07:40:55 51°13.598 2°56.094 7.6 350 6.3 101400 57
2007-02-16 07:41:00 51°13.598 2°56.094 6.7 355 6.3 101400 57
2007-02-16 07:41:04 51°13.598 2°56.094 7.6 352 6.3 101410 57
2007-02-16 07:41:10 51°13.598 2°56.094 5.8 356 6.3 101410 57
2007-02-16 07:41:15 51°13.598 2°56.093 6.6 350 6.3 101400 56
2007-02-16 07:41:20 51°13.598 2°56.093 6.7 353 6.3 101400 56
2007-02-16 07:41:24 51°13.598 2°56.091 5.8 357 6.3 101400 56
2007-02-16 07:41:29 51°13.599 2°56.09 6.7 353 6.3 101400 56
2007-02-16 07:41:34 51°13.599 2°56.088 5.4 351 6.3 101400 56
2007-02-16 07:41:40 51°13.6 2°56.085 4.9 358 6.3 101400 56
2007-02-16 07:41:44 51°13.601 2°56.082 4.2 351 6.3 101400 56
2007-02-16 07:41:50 51°13.603 2°56.078 4.7 354 6.3 101400 56
2007-02-16 07:41:55 51°13.604 2°56.073 4.2 351 6.3 101400 56
2007-02-16 07:42:00 51°13.605 2°56.068 4 281 6.3 101400 56
2007-02-16 07:42:06 51°13.607 2°56.062 3.9 4 6.3 101400 57
2007-02-16 07:42:12 51°13.608 2°56.055 4.1 12 6.3 101400 57
2007-02-16 07:42:17 51°13.609 2°56.049 3.8 11 6.3 101410 57
2007-02-16 07:42:23 51°13.61 2°56.042 4.1 6 6.3 101410 57
2007-02-16 07:42:28 51°13.611 2°56.037 4 3 6.3 101410 57
2007-02-16 07:42:33 51°13.613 2°56.031 4.4 360 6.3 101410 57
2007-02-16 07:42:38 51°13.614 2°56.025 3.5 357 6.3 101400 57
2007-02-16 07:42:43 51°13.616 2°56.019 2.9 356 6.3 101400 57
2007-02-16 07:42:48 51°13.617 2°56.013 4.1 345 6.3 101400 57
2007-02-16 07:42:53 51°13.619 2°56.007 4.5 279 6.3 101400 57
2007-02-16 07:42:58 51°13.621 2°56.001 3.6 339 6.3 101410 57
2007-02-16 07:43:03 51°13.623 2°55.995 4.1 280 6.3 101410 57
2007-02-16 07:43:08 51°13.625 2°55.988 3.8 356 6.3 101410 57
2007-02-16 07:43:13 51°13.627 2°55.982 3.6 354 6.3 101410 57
2007-02-16 07:43:18 51°13.629 2°55.975 3.3 343 6.3 101400 57
2007-02-16 07:43:23 51°13.63 2°55.969 3.5 350 6.3 101400 57
2007-02-16 07:43:28 51°13.632 2°55.963 2.1 343 6.3 101400 57
2007-02-16 07:43:33 51°13.635 2°55.957 3.8 280 6.3 101400 57
2007-02-16 07:43:38 51°13.637 2°55.95 3.3 344 6.3 101400 57
2007-02-16 07:43:43 51°13.639 2°55.944 2.9 353 6.3 101400 57
2007-02-16 07:43:47 51°13.641 2°55.939 4.1 347 6.3 101400 57
2007-02-16 07:43:53 51°13.643 2°55.931 3.5 354 6.3 101400 57
2007-02-16 07:43:58 51°13.645 2°55.925 3.7 349 6.3 101400 57
2007-02-16 07:44:03 51°13.648 2°55.918 4 280 6.3 101400 57
2007-02-16 07:44:08 51°13.65 2°55.912 3.5 351 6.3 101400 57
2007-02-16 07:44:13 51°13.652 2°55.905 3.3 280 6.3 101400 57
2007-02-16 07:44:18 51°13.654 2°55.898 3.1 357 6.3 101400 57
2007-02-16 07:44:23 51°13.656 2°55.891 3.3 348 6.3 101400 57
2007-02-16 07:44:28 51°13.658 2°55.884 3.1 346 6.3 101400 58
2007-02-16 07:44:33 51°13.66 2°55.877 3.2 6 6.3 101400 58
2007-02-16 07:44:38 51°13.662 2°55.87 2.6 357 6.3 101400 58
2007-02-16 07:44:43 51°13.664 2°55.863 5.4 360 6.3 101400 58
2007-02-16 07:44:48 51°13.666 2°55.856 4.2 344 6.3 101400 58
2007-02-16 07:44:53 51°13.668 2°55.849 4.5 280 6.3 101400 58
2007-02-16 07:44:58 51°13.67 2°55.842 4.6 3 6.3 101400 58
2007-02-16 07:45:03 51°13.671 2°55.835 3.9 11 6.3 101400 58
2007-02-16 07:45:08 51°13.672 2°55.829 3.7 354 6.3 101390 58
2007-02-16 07:45:13 51°13.674 2°55.822 4.7 349 6.3 101390 58
2007-02-16 07:45:17 51°13.675 2°55.817 4.8 349 6.3 101390 58
2007-02-16 07:45:22 51°13.676 2°55.811 5.5 354 6.3 101390 58
2007-02-16 07:45:27 51°13.677 2°55.805 5.6 11 6.3 101390 58
2007-02-16 07:45:32 51°13.678 2°55.799 5.4 354 6.3 101390 58
2007-02-16 07:45:37 51°13.679 2°55.793 4 354 6.3 101390 57
2007-02-16 07:45:42 51°13.68 2°55.787 3.5 12 6.3 101390 57
2007-02-16 07:45:46 51°13.68 2°55.783 2.6 11 6.3 101380 57
2007-02-16 07:45:52 51°13.681 2°55.776 4.1 25 6.3 101380 57
2007-02-16 07:45:56 51°13.682 2°55.772 4.2 2 6.3 101390 57
2007-02-16 07:46:01 51°13.682 2°55.766 3.7 354 6.3 101390 57
2007-02-16 07:46:06 51°13.682 2°55.761 2.8 15 6.3 101390 57
2007-02-16 07:46:11 51°13.683 2°55.756 3.6 16 6.3 101390 57
2007-02-16 07:46:16 51°13.683 2°55.752 4.9 25 6.3 101390 57
2007-02-16 07:46:20 51°13.683 2°55.748 5 24 6.3 101390 57
2007-02-16 07:46:25 51°13.683 2°55.744 4 22 6.3 101390 57
2007-02-16 07:46:30 51°13.683 2°55.74 4.2 17 6.3 101390 57
2007-02-16 07:46:35 51°13.683 2°55.737 5.1 15 6.3 101390 57
2007-02-16 07:46:40 51°13.683 2°55.734 4.1 12 6.3 101390 57
2007-02-16 07:46:45 51°13.683 2°55.732 5.2 20 6.3 101390 57
2007-02-16 07:46:49 51°13.683 2°55.731 5.1 15 6.3 101390 57
2007-02-16 07:46:54 51°13.683 2°55.73 5.7 26 6.3 101390 57
2007-02-16 07:47:00 51°13.683 2°55.73 6 21 6.3 101390 57
2007-02-16 07:47:05 51°13.685 2°55.731 5.7 27 6.3 101390 57
2007-02-16 07:47:09 51°13.686 2°55.733 4.7 26 6.3 101390 57
2007-02-16 07:47:14 51°13.688 2°55.735 4.5 24 6.3 101390 57
2007-02-16 07:47:20 51°13.691 2°55.738 4.1 25 6.3 101390 57
2007-02-16 07:47:25 51°13.695 2°55.74 6.2 35 6.3 101390 57
2007-02-16 07:47:30 51°13.699 2°55.742 5.2 40 6.3 101390 57
2007-02-16 07:47:34 51°13.703 2°55.743 3.3 34 6.3 101380 57
2007-02-16 07:47:39 51°13.708 2°55.743 2.5 28 6.3 101380 57
2007-02-16 07:47:44 51°13.713 2°55.742 3.2 36 6.3 101390 57
2007-02-16 07:47:50 51°13.719 2°55.74 3.3 40 6.3 101390 57
2007-02-16 07:47:54 51°13.722 2°55.738 4.4 18 6.3 101390 57
2007-02-16 07:47:59 51°13.727 2°55.735 3 80 6.3 101390 57
2007-02-16 07:48:04 51°13.731 2°55.731 4.5 19 6.3 101390 57
2007-02-16 07:48:09 51°13.736 2°55.727 5.4 79 6.3 101390 57
2007-02-16 07:48:15 51°13.742 2°55.721 4.2 19 6.3 101390 57
2007-02-16 07:48:20 51°13.748 2°55.716 5 74 6.3 101390 57
2007-02-16 07:48:24 51°13.753 2°55.711 2.5 45 6.3 101390 57
2007-02-16 07:48:30 51°13.76 2°55.704 3.5 80 6.3 101390 57
2007-02-16 07:48:35 51°13.767 2°55.697 2.8 27 6.3 101390 57
2007-02-16 07:48:40 51°13.774 2°55.69 4.9 75 6.3 101390 57
2007-02-16 07:48:44 51°13.779 2°55.684 5.2 27 6.3 101390 57
2007-02-16 07:48:49 51°13.787 2°55.676 4.8 39 6.3 101390 57
2007-02-16 07:48:55 51°13.796 2°55.667 2.3 24 6.3 101390 57
2007-02-16 07:49:00 51°13.804 2°55.66 2.2 81 6.3 101390 57
2007-02-16 07:49:04 51°13.811 2°55.654 3.1 43 6.3 101390 56
2007-02-16 07:49:09 51°13.819 2°55.647 3.1 75 6.3 101390 56
2007-02-16 07:49:14 51°13.828 2°55.64 3 27 6.3 101390 56
2007-02-16 07:49:20 51°13.839 2°55.632 4.2 79 6.3 101390 56
2007-02-16 07:49:24 51°13.846 2°55.626 5.2 24 6.3 101380 57
2007-02-16 07:49:29 51°13.855 2°55.619 3.9 76 6.3 101380 57
2007-02-16 07:49:34 51°13.864 2°55.612 3 24 6.4 101380 57
2007-02-16 07:49:40 51°13.876 2°55.604 2.4 75 6.4 101380 57
2007-02-16 07:49:44 51°13.883 2°55.598 1.9 27 6.3 101380 56
2007-02-16 07:49:50 51°13.895 2°55.59 2.2 77 6.3 101380 56
2007-02-16 07:49:54 51°13.902 2°55.584 1.4 21 6.4 101380 56
2007-02-16 07:49:59 51°13.912 2°55.577 1.5 83 6.4 101380 56
2007-02-16 07:50:05 51°13.924 2°55.568 1.4 24 6.4 101380 56
2007-02-16 07:50:10 51°13.933 2°55.561 2 80 6.4 101380 56
2007-02-16 07:50:14 51°13.941 2°55.555 1.9 21 6.4 101390 56
2007-02-16 07:50:19 51°13.951 2°55.548 2.7 79 6.4 101390 56
2007-02-16 07:50:24 51°13.96 2°55.541 2.2 19 6.4 101380 56
2007-02-16 07:50:30 51°13.972 2°55.532 1.9 77 6.4 101380 56
2007-02-16 07:50:34 51°13.98 2°55.527 1.2 22 6.4 101390 56
2007-02-16 07:50:40 51°13.992 2°55.519 1.4 45 6.4 101390 56
2007-02-16 07:50:44 51°14 2°55.513 2 44 6.5 101380 56
2007-02-16 07:50:49 51°14.01 2°55.506 2.6 34 6.5 101380 56
2007-02-16 07:50:55 51°14.022 2°55.497 1.7 39 6.5 101380 57
2007-02-16 07:51:00 51°14.032 2°55.49 2.7 39 6.5 101380 57
2007-02-16 07:51:04 51°14.04 2°55.485 2.8 32 6.5 101390 57
2007-02-16 07:51:10 51°14.052 2°55.476 2.1 36 6.5 101390 57
2007-02-16 07:51:15 51°14.062 2°55.469 2.4 25 6.5 101380 57
2007-02-16 07:51:21 51°14.074 2°55.461 2.1 78 6.5 101380 57
2007-02-16 07:51:25 51°14.082 2°55.455 2.6 24 6.5 101380 57
2007-02-16 07:51:31 51°14.094 2°55.446 2 76 6.5 101380 57
2007-02-16 07:51:36 51°14.104 2°55.438 3.8 24 6.5 101380 57
2007-02-16 07:51:41 51°14.114 2°55.431 4.4 42 6.5 101380 57
2007-02-16 07:51:46 51°14.124 2°55.423 4.2 39 6.5 101380 57
2007-02-16 07:51:52 51°14.135 2°55.413 3.5 78 6.5 101380 57
2007-02-16 07:51:57 51°14.145 2°55.405 4.5 18 6.6 101370 57
2007-02-16 07:52:03 51°14.157 2°55.395 3.6 79 6.6 101370 57
2007-02-16 07:52:08 51°14.166 2°55.386 2.8 21 6.5 101380 56
2007-02-16 07:52:13 51°14.175 2°55.376 4.2 79 6.5 101380 56
2007-02-16 07:52:18 51°14.184 2°55.366 4.3 25 6.5 101370 56
2007-02-16 07:52:23 51°14.193 2°55.356 4.6 79 6.5 101370 56
2007-02-16 07:52:28 51°14.202 2°55.345 4.6 26 6.6 101380 56
2007-02-16 07:52:33 51°14.211 2°55.335 4.1 75 6.6 101380 56
2007-02-16 07:52:38 51°14.219 2°55.323 5 27 6.6 101370 56
2007-02-16 07:52:43 51°14.228 2°55.312 4.9 79 6.6 101370 56
2007-02-16 07:52:48 51°14.236 2°55.301 3.3 24 6.6 101370 56
2007-02-16 07:52:53 51°14.244 2°55.289 3.6 81 6.6 101370 56
2007-02-16 07:52:58 51°14.252 2°55.276 5.5 18 6.6 101380 55
2007-02-16 07:53:03 51°14.259 2°55.263 5.3 80 6.6 101380 55
2007-02-16 07:53:08 51°14.267 2°55.251 5.9 25 6.6 101370 56
2007-02-16 07:53:13 51°14.274 2°55.238 7.4 79 6.6 101370 56
2007-02-16 07:53:18 51°14.281 2°55.225 4.2 27 6.7 101370 56
2007-02-16 07:53:23 51°14.289 2°55.212 3.8 80 6.7 101370 56
2007-02-16 07:53:28 51°14.296 2°55.199 4.8 25 6.7 101380 55
2007-02-16 07:53:33 51°14.304 2°55.186 3.9 285 6.7 101380 55
2007-02-16 07:53:37 51°14.309 2°55.175 4 30 6.7 101380 56
2007-02-16 07:53:43 51°14.318 2°55.159 3.6 79 6.7 101380 56
2007-02-16 07:53:47 51°14.324 2°55.149 3.6 21 6.7 101380 56
2007-02-16 07:53:52 51°14.331 2°55.135 2.2 280 6.7 101380 56
2007-02-16 07:53:57 51°14.338 2°55.121 2.5 263 6.7 101380 56
2007-02-16 07:54:02 51°14.346 2°55.106 2.3 285 6.7 101380 56
2007-02-16 07:54:07 51°14.354 2°55.088 1.7 18 6.6 101380 56
2007-02-16 07:54:12 51°14.363 2°55.07 1.9 280 6.6 101380 56
2007-02-16 07:54:16 51°14.37 2°55.054 2.6 255 6.6 101380 56
2007-02-16 07:54:21 51°14.38 2°55.033 2 285 6.6 101380 56
2007-02-16 07:54:26 51°14.389 2°55.011 1.4 254 6.6 101370 56
2007-02-16 07:54:31 51°14.399 2°54.989 3.2 285 6.6 101370 56
2007-02-16 07:54:36 51°14.409 2°54.966 4 251 6.7 101380 56
2007-02-16 07:54:41 51°14.418 2°54.942 4.5 286 6.7 101380 56
2007-02-16 07:54:46 51°14.427 2°54.916 3.9 250 6.6 101370 56
2007-02-16 07:54:50 51°14.433 2°54.895 6.3 278 6.6 101370 56
2007-02-16 07:54:55 51°14.44 2°54.867 7 257 6.6 101380 56
2007-02-16 07:55:00 51°14.447 2°54.84 8.4 284 6.6 101380 56
2007-02-16 07:55:05 51°14.452 2°54.811 7.4 250 6.6 101380 55
2007-02-16 07:55:10 51°14.457 2°54.782 7.3 285 6.6 101380 55
2007-02-16 07:55:14 51°14.46 2°54.758 7.8 25 6.6 101380 55
2007-02-16 07:55:19 51°14.463 2°54.729 8.8 280 6.6 101380 55
2007-02-16 07:55:24 51°14.465 2°54.698 7.3 24 6.6 101380 55
2007-02-16 07:55:29 51°14.466 2°54.668 9.3 282 6.6 101380 55
2007-02-16 07:55:35 51°14.467 2°54.632 8.6 18 6.6 101380 54
2007-02-16 07:55:40 51°14.466 2°54.601 8.9 285 6.6 101380 54
2007-02-16 07:55:44 51°14.466 2°54.577 9 248 6.7 101360 54
2007-02-16 07:55:49 51°14.463 2°54.547 11.4 283 6.7 101360 54
2007-02-16 07:55:54 51°14.46 2°54.517 9.2 21 6.7 101350 54
2007-02-16 07:56:00 51°14.454 2°54.482 10.4 284 6.7 101350 54
2007-02-16 07:56:04 51°14.449 2°54.459 13.5 19 6.7 101350 54
2007-02-16 07:56:10 51°14.439 2°54.425 11.1 287 6.7 101350 54
2007-02-16 07:56:14 51°14.433 2°54.403 13 20 6.8 101360 54
2007-02-16 07:56:19 51°14.424 2°54.376 12.8 287 6.8 101360 54
2007-02-16 07:56:25 51°14.413 2°54.345 11.7 26 6.8 101330 54
2007-02-16 07:56:30 51°14.403 2°54.318 13.1 287 6.8 101330 54
2007-02-16 07:56:34 51°14.396 2°54.297 11.9 23 6.8 101330 53
2007-02-16 07:56:39 51°14.387 2°54.271 11.8 282 6.8 101330 53
2007-02-16 07:56:45 51°14.375 2°54.24 11.9 27 6.8 101310 53
2007-02-16 07:56:50 51°14.366 2°54.213 12.7 279 6.8 101310 53
2007-02-16 07:56:54 51°14.358 2°54.192 13.2 22 6.9 101320 54
2007-02-16 07:57:00 51°14.347 2°54.161 14 287 6.9 101320 54
2007-02-16 07:57:04 51°14.339 2°54.14 12.2 18 6.9 101330 54
2007-02-16 07:57:09 51°14.329 2°54.113 13.5 283 6.9 101330 54
2007-02-16 07:57:15 51°14.318 2°54.082 14.2 23 6.9 101320 54
2007-02-16 07:57:20 51°14.308 2°54.055 13.5 286 6.9 101320 54
2007-02-16 07:57:24 51°14.3 2°54.034 13.9 20 6.9 101320 54
2007-02-16 07:57:30 51°14.289 2°54.002 13.7 283 6.9 101320 54
2007-02-16 07:57:35 51°14.279 2°53.975 16.9 24 6.9 101310 53
2007-02-16 07:57:40 51°14.269 2°53.948 15.6 283 6.9 101310 53
2007-02-16 07:57:44 51°14.262 2°53.927 14.8 24 7 101320 53
2007-02-16 07:57:49 51°14.252 2°53.9 14.7 285 7 101320 53
2007-02-16 07:57:54 51°14.242 2°53.873 13.3 25 7 101310 53
2007-02-16 07:58:00 51°14.23 2°53.841 13.7 278 7 101310 53
2007-02-16 07:58:04 51°14.223 2°53.82 12.9 24 7 101290 53
2007-02-16 07:58:09 51°14.213 2°53.793 13.4 283 7 101290 53
2007-02-16 07:58:14 51°14.203 2°53.767 11.9 20 7 101310 53
2007-02-16 07:58:20 51°14.191 2°53.734 12.6 278 7 101310 53
2007-02-16 07:58:25 51°14.181 2°53.707 11.6 26 7 101310 53
2007-02-16 07:58:30 51°14.172 2°53.68 12.8 277 7 101310 53
2007-02-16 07:58:34 51°14.164 2°53.659 14.5 28 7 101320 53
2007-02-16 07:58:40 51°14.153 2°53.626 15.4 279 7 101320 53
2007-02-16 07:58:45 51°14.143 2°53.599 14.1 25 7.1 101320 54
2007-02-16 07:58:49 51°14.136 2°53.577 12.9 281 7.1 101320 54
2007-02-16 07:58:54 51°14.126 2°53.55 13.7 21 7.1 101310 53
2007-02-16 07:59:00 51°14.115 2°53.517 13.4 280 7.1 101310 53
2007-02-16 07:59:05 51°14.105 2°53.489 13.3 21 7.1 101310 52
2007-02-16 07:59:09 51°14.098 2°53.467 13.4 286 7.1 101310 52
2007-02-16 07:59:14 51°14.088 2°53.44 12.1 22 7.1 101310 52
2007-02-16 07:59:20 51°14.077 2°53.407 11 282 7.1 101310 52
2007-02-16 07:59:24 51°14.069 2°53.385 11.9 27 7.1 101310 53
2007-02-16 07:59:30 51°14.058 2°53.352 14 287 7.1 101310 53
2007-02-16 07:59:35 51°14.048 2°53.325 12.2 246 7.1 101310 52
2007-02-16 07:59:40 51°14.039 2°53.297 12.8 283 7.1 101310 52
2007-02-16 07:59:44 51°14.031 2°53.275 17.5 25 7.1 101320 53
2007-02-16 07:59:50 51°14.02 2°53.242 15.8 283 7.1 101320 53
2007-02-16 07:59:55 51°14.01 2°53.214 15.5 25 7.1 101320 53
2007-02-16 08:00:00 51°14 2°53.187 14.2 284 7.1 101320 53
2007-02-16 08:00:04 51°13.992 2°53.165 15.1 20 7.2 101330 53
2007-02-16 08:00:09 51°13.983 2°53.137 13.9 281 7.2 101330 53
2007-02-16 08:00:15 51°13.971 2°53.104 14.2 24 7.2 101320 52
2007-02-16 08:00:20 51°13.962 2°53.076 14.8 281 7.2 101320 52
2007-02-16 08:00:24 51°13.954 2°53.055 16.1 23 7.2 101310 53
2007-02-16 08:00:29 51°13.945 2°53.027 14.7 286 7.2 101310 53
2007-02-16 08:00:34 51°13.935 2°52.999 15.1 24 7.2 101310 53
2007-02-16 08:00:40 51°13.924 2°52.966 14.6 286 7.2 101310 53
2007-02-16 08:00:44 51°13.916 2°52.944 15.7 24 7.2 101310 53
2007-02-16 08:00:49 51°13.907 2°52.916 14.6 282 7.2 101310 53
2007-02-16 08:00:55 51°13.896 2°52.882 14.6 22 7.2 101300 52
2007-02-16 08:01:00 51°13.886 2°52.855 13 282 7.2 101300 52
2007-02-16 08:01:04 51°13.879 2°52.833 11.5 24 7.2 101310 52
2007-02-16 08:01:09 51°13.869 2°52.805 13.1 284 7.2 101310 52
2007-02-16 08:01:14 51°13.86 2°52.777 13.9 21 7.2 101300 52
2007-02-16 08:01:20 51°13.848 2°52.744 12.7 282 7.2 101300 52
2007-02-16 08:01:25 51°13.838 2°52.716 12.6 27 7.2 101310 52
2007-02-16 08:01:30 51°13.829 2°52.689 11.8 282 7.2 101310 52
2007-02-16 08:01:34 51°13.821 2°52.667 12.4 27 7.2 101320 53
2007-02-16 08:01:40 51°13.81 2°52.633 13.9 286 7.2 101320 53
2007-02-16 08:01:44 51°13.802 2°52.611 13.2 25 7.2 101310 54
2007-02-16 08:01:49 51°13.793 2°52.583 12.5 286 7.2 101310 54
2007-02-16 08:01:54 51°13.783 2°52.555 13.6 24 7.2 101320 54
2007-02-16 08:02:00 51°13.771 2°52.522 14.6 281 7.2 101320 54
2007-02-16 08:02:04 51°13.764 2°52.5 13.9 25 7.2 101320 53
2007-02-16 08:02:09 51°13.754 2°52.473 15.3 284 7.2 101320 53
2007-02-16 08:02:15 51°13.742 2°52.439 11.3 24 7.2 101320 54
2007-02-16 08:02:20 51°13.732 2°52.412 13.7 282 7.2 101320 54
2007-02-16 08:02:24 51°13.725 2°52.39 12.5 21 7.2 101310 53
2007-02-16 08:02:29 51°13.715 2°52.362 13.8 282 7.2 101310 53
2007-02-16 08:02:35 51°13.704 2°52.329 16.2 22 7.2 101320 53
2007-02-16 08:02:40 51°13.694 2°52.301 14.3 286 7.2 101320 53
2007-02-16 08:02:45 51°13.685 2°52.274 13.6 27 7.2 101320 53
2007-02-16 08:02:49 51°13.677 2°52.251 15.2 285 7.2 101320 53
2007-02-16 08:02:54 51°13.668 2°52.224 13.6 23 7.1 101310 54
2007-02-16 08:03:00 51°13.657 2°52.191 13.2 280 7.1 101310 54
2007-02-16 08:03:05 51°13.647 2°52.163 12.5 19 7.2 101310 54
2007-02-16 08:03:10 51°13.638 2°52.136 12.3 285 7.2 101310 54
2007-02-16 08:03:15 51°13.628 2°52.108 12.6 18 7.1 101300 54
2007-02-16 08:03:20 51°13.619 2°52.08 13.6 277 7.1 101300 54
2007-02-16 08:03:25 51°13.609 2°52.053 13.6 20 7.1 101320 53
2007-02-16 08:03:30 51°13.6 2°52.025 14.3 286 7.1 101320 53
2007-02-16 08:03:34 51°13.593 2°52.002 14.2 23 7.1 101330 53
2007-02-16 08:03:40 51°13.581 2°51.969 11.9 282 7.1 101330 53
2007-02-16 08:03:45 51°13.572 2°51.941 12.7 23 7.1 101320 54
2007-02-16 08:03:50 51°13.563 2°51.914 11.6 285 7.1 101320 54
2007-02-16 08:03:55 51°13.554 2°51.886 12.4 25 7.1 101320 54
2007-02-16 08:04:00 51°13.545 2°51.858 12.2 277 7.1 101320 54
2007-02-16 08:04:05 51°13.535 2°51.831 14 22 7.1 101320 54
2007-02-16 08:04:10 51°13.526 2°51.803 13.7 286 7.1 101320 54
2007-02-16 08:04:15 51°13.517 2°51.775 11.9 24 7.1 101320 54
2007-02-16 08:04:20 51°13.507 2°51.747 12.7 284 7.1 101320 54
2007-02-16 08:04:25 51°13.498 2°51.72 12.7 20 7.1 101330 55
2007-02-16 08:04:30 51°13.489 2°51.692 12.7 283 7.1 101330 55
2007-02-16 08:04:35 51°13.48 2°51.664 13.1 22 7.1 101320 55
2007-02-16 08:04:40 51°13.47 2°51.637 12.4 287 7.1 101320 55
2007-02-16 08:04:45 51°13.461 2°51.609 14.1 18 7 101330 55
2007-02-16 08:04:50 51°13.452 2°51.581 13.7 282 7 101330 55
2007-02-16 08:04:54 51°13.444 2°51.559 12.4 24 7 101320 55
2007-02-16 08:05:00 51°13.433 2°51.526 14.1 285 7 101320 55
2007-02-16 08:05:05 51°13.424 2°51.498 13.6 22 7 101330 56
2007-02-16 08:05:10 51°13.414 2°51.47 12.3 283 7 101330 56
2007-02-16 08:05:14 51°13.407 2°51.448 14.2 24 7 101320 56
2007-02-16 08:05:20 51°13.395 2°51.415 12.9 285 7 101320 56
2007-02-16 08:05:25 51°13.386 2°51.388 12.1 22 7 101320 56
2007-02-16 08:05:30 51°13.377 2°51.36 13.5 281 7 101320 56
2007-02-16 08:05:34 51°13.369 2°51.338 14.1 21 6.9 101330 56
2007-02-16 08:05:40 51°13.358 2°51.305 12 283 6.9 101330 56
2007-02-16 08:05:45 51°13.349 2°51.277 12.5 26 6.9 101330 57
2007-02-16 08:05:50 51°13.34 2°51.249 14 287 6.9 101330 57
2007-02-16 08:05:55 51°13.33 2°51.221 10.2 22 6.9 101320 56
2007-02-16 08:06:00 51°13.321 2°51.193 11.1 279 6.9 101320 56
2007-02-16 08:06:05 51°13.311 2°51.166 13.7 24 6.9 101330 56
2007-02-16 08:06:10 51°13.302 2°51.138 12.1 287 6.9 101330 56
2007-02-16 08:06:15 51°13.293 2°51.111 13.3 25 6.9 101330 56
2007-02-16 08:06:20 51°13.283 2°51.083 12.6 283 6.9 101330 56
2007-02-16 08:06:25 51°13.274 2°51.055 13.4 22 6.9 101330 56
2007-02-16 08:06:30 51°13.264 2°51.028 12.4 279 6.9 101330 56
2007-02-16 08:06:35 51°13.255 2°51 13.3 24 6.9 101330 57
2007-02-16 08:06:40 51°13.246 2°50.973 12.5 282 6.9 101330 57
2007-02-16 08:06:45 51°13.237 2°50.945 11.7 24 6.9 101320 57
2007-02-16 08:06:50 51°13.228 2°50.917 12.8 282 6.9 101320 57
2007-02-16 08:06:55 51°13.218 2°50.889 11.9 22 6.9 101330 57
2007-02-16 08:07:00 51°13.209 2°50.862 11.8 277 6.9 101330 57
2007-02-16 08:07:05 51°13.2 2°50.834 13.6 22 6.9 101320 56
2007-02-16 08:07:10 51°13.19 2°50.806 11.3 281 6.9 101320 56
2007-02-16 08:07:15 51°13.181 2°50.778 13 27 6.9 101340 57
2007-02-16 08:07:20 51°13.172 2°50.751 13.8 281 6.9 101340 57
2007-02-16 08:07:25 51°13.163 2°50.723 13.6 28 6.9 101330 57
2007-02-16 08:07:30 51°13.154 2°50.695 14 285 6.9 101330 57
2007-02-16 08:07:34 51°13.146 2°50.673 12.3 22 6.9 101330 57
2007-02-16 08:07:40 51°13.135 2°50.639 10.8 280 6.9 101330 57
2007-02-16 08:07:45 51°13.126 2°50.612 12.5 23 6.8 101330 56
2007-02-16 08:07:50 51°13.116 2°50.584 14.1 279 6.8 101330 56
2007-02-16 08:07:54 51°13.109 2°50.562 10.9 24 6.8 101320 57
2007-02-16 08:08:00 51°13.098 2°50.529 14.8 284 6.8 101320 57
2007-02-16 08:08:05 51°13.088 2°50.501 13.1 23 6.8 101340 57
2007-02-16 08:08:10 51°13.079 2°50.474 12.9 287 6.8 101340 57
2007-02-16 08:08:15 51°13.07 2°50.446 14.3 25 6.9 101330 57
2007-02-16 08:08:20 51°13.061 2°50.418 14.1 278 6.9 101330 57
2007-02-16 08:08:25 51°13.051 2°50.391 13.7 24 6.9 101320 57
2007-02-16 08:08:30 51°13.042 2°50.363 12.1 280 6.9 101320 57
2007-02-16 08:08:35 51°13.032 2°50.336 13.7 23 6.9 101320 57
2007-02-16 08:08:40 51°13.023 2°50.308 14.6 282 6.9 101320 57
2007-02-16 08:08:45 51°13.014 2°50.28 12.5 21 6.9 101320 57
2007-02-16 08:08:50 51°13.004 2°50.253 13.3 282 6.9 101320 57
2007-02-16 08:08:55 51°12.995 2°50.225 12.6 19 6.9 101320 57
2007-02-16 08:09:00 51°12.986 2°50.197 13.1 286 6.9 101320 57
2007-02-16 08:09:05 51°12.977 2°50.169 12.5 21 6.9 101320 57
2007-02-16 08:09:10 51°12.967 2°50.142 12.9 284 6.9 101320 57
2007-02-16 08:09:15 51°12.958 2°50.114 12.4 23 7 101330 58
2007-02-16 08:09:20 51°12.949 2°50.086 12.9 279 7 101330 58
2007-02-16 08:09:25 51°12.94 2°50.058 13.1 22 6.9 101320 57
2007-02-16 08:09:30 51°12.931 2°50.03 13.1 283 6.9 101320 57
2007-02-16 08:09:35 51°12.922 2°50.002 13.5 21 6.9 101330 57
2007-02-16 08:09:40 51°12.913 2°49.974 12.2 278 6.9 101330 57
2007-02-16 08:09:45 51°12.903 2°49.946 12.4 20 6.9 101320 57
2007-02-16 08:09:50 51°12.894 2°49.919 13.4 279 6.9 101320 57
2007-02-16 08:09:55 51°12.885 2°49.891 12.5 24 6.8 101310 57
2007-02-16 08:10:00 51°12.876 2°49.863 12.1 278 6.8 101310 57
2007-02-16 08:10:05 51°12.867 2°49.835 14.1 26 6.8 101320 58
2007-02-16 08:10:10 51°12.857 2°49.807 13.9 286 6.8 101320 58
2007-02-16 08:10:15 51°12.848 2°49.78 12.4 23 6.8 101320 57
2007-02-16 08:10:20 51°12.839 2°49.752 11.9 279 6.8 101320 57
2007-02-16 08:10:25 51°12.83 2°49.724 12.7 27 6.9 101300 57
2007-02-16 08:10:30 51°12.82 2°49.696 13.9 282 6.9 101300 57
2007-02-16 08:10:35 51°12.811 2°49.669 14.2 23 6.8 101320 57
2007-02-16 08:10:40 51°12.802 2°49.641 13.6 283 6.8 101320 57
2007-02-16 08:10:45 51°12.792 2°49.613 11.3 26 6.8 101320 58
2007-02-16 08:10:50 51°12.783 2°49.585 11.7 288 6.8 101320 58
2007-02-16 08:10:55 51°12.774 2°49.557 11.4 21 6.8 101310 57
2007-02-16 08:11:00 51°12.765 2°49.53 11.6 284 6.8 101310 57
2007-02-16 08:11:05 51°12.756 2°49.502 12.9 21 6.8 101320 58
2007-02-16 08:11:10 51°12.746 2°49.474 11.4 281 6.8 101320 58
2007-02-16 08:11:15 51°12.737 2°49.446 11.7 24 6.8 101310 58
2007-02-16 08:11:20 51°12.728 2°49.419 12.3 282 6.8 101310 58
2007-02-16 08:11:25 51°12.719 2°49.391 12.6 22 6.8 101320 58
2007-02-16 08:11:30 51°12.709 2°49.363 12 282 6.8 101320 58
2007-02-16 08:11:35 51°12.7 2°49.335 11.5 24 6.7 101310 58
2007-02-16 08:11:40 51°12.691 2°49.308 11.4 282 6.7 101310 58
2007-02-16 08:11:45 51°12.682 2°49.28 12.2 21 6.8 101310 59
2007-02-16 08:11:50 51°12.672 2°49.252 12.1 282 6.8 101310 59
2007-02-16 08:11:55 51°12.663 2°49.224 12.5 20 6.7 101310 59
2007-02-16 08:12:00 51°12.654 2°49.197 13.5 277 6.7 101310 59
2007-02-16 08:12:05 51°12.645 2°49.169 12.4 25 6.7 101320 59
2007-02-16 08:12:10 51°12.636 2°49.141 12 282 6.7 101320 59
2007-02-16 08:12:15 51°12.626 2°49.114 12.3 24 6.7 101320 59
2007-02-16 08:12:20 51°12.617 2°49.086 13 284 6.7 101320 59
2007-02-16 08:12:25 51°12.608 2°49.058 13.1 24 6.7 101310 59
2007-02-16 08:12:30 51°12.599 2°49.031 13.5 279 6.7 101310 59
2007-02-16 08:12:35 51°12.59 2°49.003 12.8 23 6.7 101310 59
2007-02-16 08:12:40 51°12.58 2°48.975 12.7 286 6.7 101310 59
2007-02-16 08:12:45 51°12.571 2°48.948 12.8 19 6.7 101310 59
2007-02-16 08:12:50 51°12.562 2°48.92 13.5 285 6.7 101310 59
2007-02-16 08:12:55 51°12.553 2°48.892 11 23 6.7 101320 59
2007-02-16 08:13:00 51°12.544 2°48.864 11.5 282 6.7 101320 59
2007-02-16 08:13:05 51°12.535 2°48.837 14.8 23 6.7 101310 59
2007-02-16 08:13:10 51°12.525 2°48.809 14.2 283 6.7 101310 59
2007-02-16 08:13:15 51°12.516 2°48.782 15.6 20 6.7 101310 58
2007-02-16 08:13:20 51°12.507 2°48.754 13.2 286 6.7 101310 58
2007-02-16 08:13:25 51°12.498 2°48.726 12.1 21 6.7 101320 59
2007-02-16 08:13:30 51°12.489 2°48.699 13.7 287 6.7 101320 59
2007-02-16 08:13:35 51°12.48 2°48.671 13.9 20 6.7 101310 58
2007-02-16 08:13:40 51°12.47 2°48.644 13.7 281 6.7 101310 58
2007-02-16 08:13:45 51°12.461 2°48.616 13.9 20 6.8 101310 58
2007-02-16 08:13:50 51°12.452 2°48.588 12.2 279 6.8 101310 58
2007-02-16 08:13:55 51°12.443 2°48.561 13 24 6.8 101320 59
2007-02-16 08:14:00 51°12.434 2°48.533 12.5 280 6.8 101320 59
2007-02-16 08:14:05 51°12.424 2°48.506 15.5 27 6.8 101300 57
2007-02-16 08:14:10 51°12.415 2°48.478 14.3 282 6.8 101300 57
2007-02-16 08:14:15 51°12.405 2°48.451 12.2 23 6.8 101310 57
2007-02-16 08:14:20 51°12.396 2°48.424 11.9 277 6.8 101310 57
2007-02-16 08:14:25 51°12.387 2°48.396 12.9 23 6.8 101310 58
2007-02-16 08:14:30 51°12.378 2°48.369 13.5 283 6.8 101310 58
2007-02-16 08:14:35 51°12.369 2°48.341 11.6 21 6.8 101300 58
2007-02-16 08:14:40 51°12.359 2°48.314 11.8 281 6.8 101300 58
2007-02-16 08:14:45 51°12.35 2°48.286 12.7 25 6.8 101310 57
2007-02-16 08:14:50 51°12.341 2°48.259 11.8 282 6.8 101310 57
2007-02-16 08:14:55 51°12.331 2°48.232 13.7 27 6.8 101300 57
2007-02-16 08:15:00 51°12.322 2°48.204 11.8 277 6.8 101300 57
2007-02-16 08:15:05 51°12.313 2°48.177 13 21 6.9 101310 57
2007-02-16 08:15:10 51°12.304 2°48.15 13.4 284 6.9 101310 57
2007-02-16 08:15:14 51°12.297 2°48.128 13.6 20 6.9 101310 58
2007-02-16 08:15:20 51°12.286 2°48.095 13.6 278 6.9 101310 58
2007-02-16 08:15:25 51°12.277 2°48.068 12.2 21 6.9 101310 58
2007-02-16 08:15:30 51°12.268 2°48.041 15.3 284 6.9 101310 58
2007-02-16 08:15:35 51°12.259 2°48.013 12.8 20 6.9 101300 57
2007-02-16 08:15:40 51°12.249 2°47.986 13.3 286 6.9 101300 57
2007-02-16 08:15:45 51°12.24 2°47.959 13.9 21 6.9 101310 57
2007-02-16 08:15:50 51°12.231 2°47.932 14.8 282 6.9 101310 57
2007-02-16 08:15:55 51°12.222 2°47.904 12.6 22 6.9 101290 57
2007-02-16 08:16:00 51°12.213 2°47.877 12 284 6.9 101290 57
2007-02-16 08:16:05 51°12.204 2°47.85 13.9 24 6.9 101300 57
2007-02-16 08:16:10 51°12.196 2°47.822 15.5 282 6.9 101300 57
2007-02-16 08:16:14 51°12.189 2°47.799 14.6 20 6.9 101310 57
2007-02-16 08:16:20 51°12.18 2°47.766 14 284 6.9 101310 57
2007-02-16 08:16:25 51°12.172 2°47.738 14.6 24 6.9 101310 57
2007-02-16 08:16:30 51°12.163 2°47.71 12.6 283 6.9 101310 57
2007-02-16 08:16:35 51°12.155 2°47.682 12.6 24 6.9 101300 57
2007-02-16 08:16:40 51°12.147 2°47.654 12.8 280 6.9 101300 57
2007-02-16 08:16:45 51°12.139 2°47.626 11.5 26 6.9 101310 57
2007-02-16 08:16:50 51°12.131 2°47.598 10.9 278 6.9 101310 57
2007-02-16 08:16:55 51°12.123 2°47.57 13.6 24 6.9 101310 57
2007-02-16 08:17:00 51°12.115 2°47.541 13.5 278 6.9 101310 57
2007-02-16 08:17:05 51°12.106 2°47.513 13.6 28 6.9 101310 58
2007-02-16 08:17:10 51°12.099 2°47.485 11.8 281 6.9 101310 58
2007-02-16 08:17:15 51°12.09 2°47.457 12.8 24 6.9 101300 58
2007-02-16 08:17:20 51°12.082 2°47.429 13.1 282 6.9 101300 58
2007-02-16 08:17:25 51°12.074 2°47.402 12.6 20 6.9 101300 57
2007-02-16 08:17:30 51°12.066 2°47.374 13.8 278 6.9 101300 57
2007-02-16 08:17:35 51°12.057 2°47.346 12.3 21 6.9 101310 58
2007-02-16 08:17:40 51°12.049 2°47.318 13.4 280 6.9 101310 58
2007-02-16 08:17:45 51°12.041 2°47.29 12.9 22 6.9 101300 59
2007-02-16 08:17:50 51°12.033 2°47.262 13 282 6.9 101300 59
2007-02-16 08:17:55 51°12.026 2°47.234 12.7 25 6.9 101290 58
2007-02-16 08:18:00 51°12.018 2°47.206 11.4 282 6.9 101290 58
2007-02-16 08:18:05 51°12.009 2°47.178 12.7 21 6.9 101300 59
2007-02-16 08:18:10 51°12.001 2°47.15 13.4 284 6.9 101300 59
2007-02-16 08:18:15 51°11.993 2°47.122 13.4 20 6.9 101300 59
2007-02-16 08:18:20 51°11.985 2°47.094 12.1 284 6.9 101300 59
2007-02-16 08:18:25 51°11.977 2°47.067 13.3 25 6.9 101310 59
2007-02-16 08:18:30 51°11.969 2°47.039 12.1 281 6.9 101310 59
2007-02-16 08:18:35 51°11.96 2°47.011 15.5 25 6.9 101310 59
2007-02-16 08:18:40 51°11.952 2°46.983 14.8 282 6.9 101310 59
2007-02-16 08:18:45 51°11.944 2°46.955 16 22 6.8 101300 59
2007-02-16 08:18:50 51°11.937 2°46.927 14.5 283 6.8 101300 59
2007-02-16 08:18:54 51°11.93 2°46.905 15.5 24 6.9 101300 59
2007-02-16 08:19:00 51°11.921 2°46.872 13.4 278 6.9 101300 59
2007-02-16 08:19:05 51°11.912 2°46.844 15.6 23 6.9 101260 58
2007-02-16 08:19:10 51°11.904 2°46.816 14.7 285 6.9 101260 58
2007-02-16 08:19:14 51°11.898 2°46.794 13.6 19 6.9 101280 57
2007-02-16 08:19:20 51°11.888 2°46.76 12.9 277 6.9 101280 57
2007-02-16 08:19:25 51°11.88 2°46.733 14.1 24 6.9 101290 59
2007-02-16 08:19:30 51°11.872 2°46.705 14.2 284 6.9 101290 59
2007-02-16 08:19:35 51°11.864 2°46.677 14.3 23 6.9 101300 58
2007-02-16 08:19:40 51°11.856 2°46.65 12 283 6.9 101300 58
2007-02-16 08:19:45 51°11.848 2°46.622 12.1 22 6.9 101300 58
2007-02-16 08:19:50 51°11.84 2°46.594 12.7 284 6.9 101300 58
2007-02-16 08:19:55 51°11.832 2°46.566 13 22 6.9 101300 58
2007-02-16 08:20:00 51°11.824 2°46.538 12.5 285 6.9 101300 58
2007-02-16 08:20:05 51°11.815 2°46.511 13.5 23 6.9 101290 58
2007-02-16 08:20:10 51°11.807 2°46.483 13.5 282 6.9 101290 58
2007-02-16 08:20:15 51°11.799 2°46.455 13.3 27 6.9 101300 59
2007-02-16 08:20:20 51°11.791 2°46.427 16.1 280 6.9 101300 59
2007-02-16 08:20:25 51°11.783 2°46.399 13.3 22 6.9 101300 59
2007-02-16 08:20:30 51°11.775 2°46.371 12 285 6.9 101300 59
2007-02-16 08:20:35 51°11.767 2°46.344 13.5 26 6.9 101300 59
2007-02-16 08:20:40 51°11.759 2°46.316 12.8 281 6.9 101300 59
2007-02-16 08:20:45 51°11.751 2°46.288 12.1 23 6.9 101290 58
2007-02-16 08:20:50 51°11.743 2°46.26 14.6 279 6.9 101290 58
2007-02-16 08:20:55 51°11.735 2°46.232 13.3 26 6.9 101300 59
2007-02-16 08:21:00 51°11.727 2°46.205 15 284 6.9 101300 59
2007-02-16 08:21:05 51°11.719 2°46.177 14.9 24 6.9 101300 59
2007-02-16 08:21:10 51°11.711 2°46.149 14.5 286 6.9 101300 59
2007-02-16 08:21:15 51°11.703 2°46.121 12.8 22 6.9 101280 59
2007-02-16 08:21:20 51°11.695 2°46.093 13.4 277 6.9 101280 59
2007-02-16 08:21:25 51°11.687 2°46.065 15.8 23 6.9 101290 58
2007-02-16 08:21:30 51°11.679 2°46.038 15.1 284 6.9 101290 58
2007-02-16 08:21:35 51°11.671 2°46.01 14 19 6.9 101290 57
2007-02-16 08:21:40 51°11.664 2°45.982 13.6 282 6.9 101290 57
2007-02-16 08:21:45 51°11.656 2°45.954 13.3 23 6.9 101300 58
2007-02-16 08:21:50 51°11.648 2°45.926 12.4 282 6.9 101300 58
2007-02-16 08:21:55 51°11.64 2°45.899 13.7 21 6.9 101290 58
2007-02-16 08:22:00 51°11.632 2°45.871 13.3 278 6.9 101290 58
2007-02-16 08:22:05 51°11.624 2°45.843 12.8 22 6.9 101300 59
2007-02-16 08:22:10 51°11.616 2°45.816 12 278 6.9 101300 59
2007-02-16 08:22:15 51°11.607 2°45.788 14.9 22 6.9 101300 59
2007-02-16 08:22:20 51°11.599 2°45.761 13.7 280 6.9 101300 59
2007-02-16 08:22:25 51°11.591 2°45.733 12.1 20 6.9 101300 58
2007-02-16 08:22:30 51°11.583 2°45.705 13.6 287 6.9 101300 58
2007-02-16 08:22:35 51°11.575 2°45.677 13.5 24 7 101300 58
2007-02-16 08:22:40 51°11.567 2°45.649 13.8 284 7 101300 58
2007-02-16 08:22:45 51°11.559 2°45.621 14.5 21 7 101300 59
2007-02-16 08:22:50 51°11.552 2°45.594 15.9 286 7 101300 59
2007-02-16 08:22:55 51°11.544 2°45.566 14.2 18 7 101300 59
2007-02-16 08:23:00 51°11.535 2°45.539 13.3 281 7 101300 59
2007-02-16 08:23:05 51°11.527 2°45.511 12.7 22 7 101300 59
2007-02-16 08:23:10 51°11.52 2°45.483 14.6 277 7 101300 59
2007-02-16 08:23:14 51°11.513 2°45.461 14 24 6.9 101290 58
2007-02-16 08:23:20 51°11.504 2°45.428 14.9 285 6.9 101290 58
2007-02-16 08:23:25 51°11.496 2°45.4 15.1 22 7 101280 57
2007-02-16 08:23:30 51°11.488 2°45.372 15.5 286 7 101280 57
2007-02-16 08:23:34 51°11.482 2°45.35 14.6 21 7 101290 57
2007-02-16 08:23:40 51°11.472 2°45.317 13.7 281 7 101290 57
2007-02-16 08:23:45 51°11.464 2°45.289 14.6 25 7 101280 57
2007-02-16 08:23:50 51°11.457 2°45.261 13.2 280 7 101280 57
2007-02-16 08:23:55 51°11.448 2°45.234 13.6 23 7 101280 58
2007-02-16 08:24:00 51°11.441 2°45.206 14.5 277 7 101280 58
2007-02-16 08:24:05 51°11.433 2°45.178 13.4 20 7 101290 58
2007-02-16 08:24:10 51°11.425 2°45.15 14.9 285 7 101290 58
2007-02-16 08:24:15 51°11.417 2°45.122 14.5 26 7 101280 58
2007-02-16 08:24:20 51°11.409 2°45.095 15.3 281 7 101280 58
2007-02-16 08:24:25 51°11.401 2°45.067 12.9 22 7 101280 59
2007-02-16 08:24:30 51°11.393 2°45.039 13.4 280 7 101280 59
2007-02-16 08:24:35 51°11.385 2°45.011 14.7 24 7 101290 59
2007-02-16 08:24:40 51°11.378 2°44.984 16.3 283 7 101290 59
2007-02-16 08:24:45 51°11.37 2°44.956 14.2 24 7 101270 58
2007-02-16 08:24:50 51°11.362 2°44.928 13.9 278 7 101270 58
2007-02-16 08:24:55 51°11.354 2°44.901 14.5 22 7 101280 59
2007-02-16 08:25:00 51°11.346 2°44.873 14.5 280 7 101280 59
2007-02-16 08:25:05 51°11.338 2°44.845 15 21 7 101260 58
2007-02-16 08:25:10 51°11.33 2°44.817 13.7 280 7 101260 58
2007-02-16 08:25:15 51°11.322 2°44.79 15.3 23 7 101270 59
2007-02-16 08:25:20 51°11.315 2°44.762 14.9 285 7 101270 59
2007-02-16 08:25:25 51°11.307 2°44.734 12.6 24 7 101290 59
2007-02-16 08:25:30 51°11.299 2°44.707 15 281 7 101290 59
2007-02-16 08:25:35 51°11.291 2°44.679 14 23 7 101280 59
2007-02-16 08:25:40 51°11.283 2°44.652 13.2 278 7 101280 59
2007-02-16 08:25:45 51°11.275 2°44.624 15 26 7 101280 59
2007-02-16 08:25:50 51°11.267 2°44.596 14.9 281 7 101280 59
2007-02-16 08:25:54 51°11.261 2°44.574 14.4 20 7 101280 59
2007-02-16 08:26:00 51°11.252 2°44.541 13.3 284 7 101280 59
2007-02-16 08:26:05 51°11.244 2°44.513 13.6 20 7 101280 59
2007-02-16 08:26:10 51°11.236 2°44.486 14.3 282 7 101280 59
2007-02-16 08:26:14 51°11.23 2°44.463 13.1 24 7 101270 58
2007-02-16 08:26:20 51°11.221 2°44.43 13.5 284 7 101270 58
2007-02-16 08:26:25 51°11.213 2°44.403 15.7 20 7 101280 59
2007-02-16 08:26:30 51°11.205 2°44.375 15.5 283 7 101280 59
2007-02-16 08:26:35 51°11.197 2°44.347 13.8 23 7 101280 59
2007-02-16 08:26:40 51°11.19 2°44.32 14.9 279 7 101280 59
2007-02-16 08:26:45 51°11.182 2°44.292 16.3 20 7 101280 59
2007-02-16 08:26:50 51°11.174 2°44.265 14.6 287 7 101280 59
2007-02-16 08:26:55 51°11.166 2°44.237 13.7 21 7 101270 59
2007-02-16 08:27:00 51°11.158 2°44.21 15.2 281 7 101270 59
2007-02-16 08:27:05 51°11.151 2°44.182 15.3 20 7 101280 59
2007-02-16 08:27:10 51°11.143 2°44.154 14.1 282 7 101280 59
2007-02-16 08:27:15 51°11.135 2°44.127 13.3 20 7 101280 59
2007-02-16 08:27:20 51°11.127 2°44.099 11.6 282 7 101280 59
2007-02-16 08:27:25 51°11.119 2°44.072 14.2 20 7 101280 59
2007-02-16 08:27:30 51°11.112 2°44.044 14.5 284 7 101280 59
2007-02-16 08:27:35 51°11.104 2°44.017 14.2 21 7 101280 60
2007-02-16 08:27:40 51°11.096 2°43.989 14.3 284 7 101280 60
2007-02-16 08:27:45 51°11.088 2°43.962 14.7 23 7 101270 60
2007-02-16 08:27:50 51°11.08 2°43.934 14.7 284 7 101270 60
2007-02-16 08:27:55 51°11.073 2°43.906 14.7 23 7 101280 60
2007-02-16 08:28:00 51°11.065 2°43.879 13.7 282 7 101280 60
2007-02-16 08:28:05 51°11.057 2°43.851 12.3 24 7 101270 59
2007-02-16 08:28:10 51°11.049 2°43.824 14.4 284 7 101270 59
2007-02-16 08:28:15 51°11.041 2°43.796 13.4 25 7 101280 60
2007-02-16 08:28:20 51°11.033 2°43.769 12.4 284 7 101280 60
2007-02-16 08:28:25 51°11.025 2°43.741 13.3 24 7 101290 60
2007-02-16 08:28:30 51°11.018 2°43.714 13.1 279 7 101290 60
2007-02-16 08:28:35 51°11.01 2°43.686 12.6 21 7 101270 60
2007-02-16 08:28:40 51°11.002 2°43.659 15.2 282 7 101270 60
2007-02-16 08:28:45 51°10.994 2°43.631 15.3 22 6.9 101280 60
2007-02-16 08:28:50 51°10.986 2°43.604 13.8 284 6.9 101280 60
2007-02-16 08:28:55 51°10.979 2°43.577 13.8 19 6.9 101280 60
2007-02-16 08:29:00 51°10.971 2°43.549 13.7 284 6.9 101280 60
2007-02-16 08:29:05 51°10.962 2°43.523 15.3 20 6.9 101280 60
2007-02-16 08:29:10 51°10.955 2°43.496 15.7 286 6.9 101280 60
2007-02-16 08:29:15 51°10.946 2°43.468 13.6 22 6.9 101260 60
2007-02-16 08:29:20 51°10.939 2°43.441 11.9 282 6.9 101260 60
2007-02-16 08:29:25 51°10.931 2°43.413 14.5 23 6.9 101280 61
2007-02-16 08:29:30 51°10.923 2°43.386 12.3 281 6.9 101280 61
2007-02-16 08:29:35 51°10.915 2°43.359 15.1 21 6.9 101270 60
2007-02-16 08:29:40 51°10.907 2°43.331 14.2 282 6.9 101270 60
2007-02-16 08:29:45 51°10.899 2°43.304 13.9 22 6.9 101280 61
2007-02-16 08:29:50 51°10.892 2°43.276 15.6 287 6.9 101280 61
2007-02-16 08:29:55 51°10.884 2°43.249 15 22 6.9 101280 61
2007-02-16 08:30:00 51°10.876 2°43.221 17.2 281 6.9 101280 61
2007-02-16 08:30:05 51°10.869 2°43.194 15.2 23 6.9 101280 61
2007-02-16 08:30:10 51°10.861 2°43.166 15.2 283 6.9 101280 61
2007-02-16 08:30:15 51°10.853 2°43.139 15.6 23 6.9 101270 61
2007-02-16 08:30:20 51°10.845 2°43.112 16.1 281 6.9 101270 61
2007-02-16 08:30:25 51°10.837 2°43.085 14.8 23 6.9 101260 60
2007-02-16 08:30:30 51°10.83 2°43.057 14.6 280 6.9 101260 60
2007-02-16 08:30:34 51°10.823 2°43.035 16.8 24 6.9 101270 60
2007-02-16 08:30:40 51°10.814 2°43.003 16.7 284 6.9 101270 60
2007-02-16 08:30:45 51°10.806 2°42.975 14.7 22 6.9 101270 60
2007-02-16 08:30:50 51°10.798 2°42.948 13.9 279 6.9 101270 60
2007-02-16 08:30:55 51°10.79 2°42.921 14.5 27 6.9 101280 60
2007-02-16 08:31:00 51°10.783 2°42.893 14 281 6.9 101280 60
2007-02-16 08:31:05 51°10.775 2°42.866 12.9 19 6.9 101260 60
2007-02-16 08:31:10 51°10.767 2°42.839 13.7 278 6.9 101260 60
2007-02-16 08:31:15 51°10.759 2°42.812 14.6 24 6.9 101270 61
2007-02-16 08:31:20 51°10.751 2°42.785 13.5 280 6.9 101270 61
2007-02-16 08:31:25 51°10.743 2°42.757 15.4 22 6.9 101280 61
2007-02-16 08:31:30 51°10.736 2°42.73 14.9 -999 6.9 101280 61
2007-02-16 08:31:35 51°10.728 2°42.703 15.7 19 6.9 101280 61
2007-02-16 08:31:40 51°10.72 2°42.675 14.6 282 6.9 101280 61
2007-02-16 08:31:45 51°10.713 2°42.648 14.1 21 6.9 101280 61
2007-02-16 08:31:50 51°10.705 2°42.621 15.4 286 6.9 101280 61
2007-02-16 08:31:55 51°10.697 2°42.593 15.3 21 6.9 101280 61
2007-02-16 08:32:00 51°10.689 2°42.566 16.6 281 6.9 101280 61
2007-02-16 08:32:05 51°10.681 2°42.539 14.6 26 6.9 101270 61
2007-02-16 08:32:10 51°10.673 2°42.512 14.6 287 6.9 101270 61
2007-02-16 08:32:15 51°10.665 2°42.485 15.6 21 6.9 101270 61
2007-02-16 08:32:20 51°10.657 2°42.458 13.3 281 6.9 101270 61
2007-02-16 08:32:25 51°10.649 2°42.43 13.9 23 6.9 101260 60
2007-02-16 08:32:30 51°10.641 2°42.403 14.4 284 6.9 101260 60
2007-02-16 08:32:35 51°10.633 2°42.376 15.6 23 6.9 101280 61
2007-02-16 08:32:40 51°10.625 2°42.349 15.1 281 6.9 101280 61
2007-02-16 08:32:45 51°10.617 2°42.321 13 21 6.9 101280 62
2007-02-16 08:32:50 51°10.61 2°42.294 15.8 283 6.9 101280 62
2007-02-16 08:32:55 51°10.602 2°42.267 14.2 20 6.9 101270 62
2007-02-16 08:33:00 51°10.594 2°42.24 13.8 280 6.9 101270 62
2007-02-16 08:33:05 51°10.586 2°42.213 16.7 22 6.9 101270 61
2007-02-16 08:33:10 51°10.578 2°42.186 17.2 282 6.9 101270 61
2007-02-16 08:33:15 51°10.571 2°42.158 15.3 22 6.8 101270 61
2007-02-16 08:33:20 51°10.563 2°42.131 13.7 280 6.8 101270 61
2007-02-16 08:33:25 51°10.555 2°42.104 13.7 22 6.8 101270 61
2007-02-16 08:33:30 51°10.548 2°42.077 13.3 282 6.8 101270 61
2007-02-16 08:33:35 51°10.54 2°42.05 12.9 26 6.8 101260 60
2007-02-16 08:33:40 51°10.532 2°42.023 13.3 285 6.8 101260 60
2007-02-16 08:33:45 51°10.524 2°41.996 15.9 22 6.8 101270 61
2007-02-16 08:33:50 51°10.516 2°41.969 14.7 280 6.8 101270 61
2007-02-16 08:33:55 51°10.509 2°41.942 14 24 6.8 101290 61
2007-02-16 08:34:00 51°10.501 2°41.915 14.6 286 6.8 101290 61
2007-02-16 08:34:05 51°10.494 2°41.888 15.1 22 6.8 101280 62
2007-02-16 08:34:10 51°10.486 2°41.861 12.8 286 6.8 101280 62
2007-02-16 08:34:15 51°10.478 2°41.834 14.5 24 6.8 101270 61
2007-02-16 08:34:20 51°10.47 2°41.807 13.3 283 6.8 101270 61
2007-02-16 08:34:25 51°10.463 2°41.78 15 20 6.8 101280 61
2007-02-16 08:34:30 51°10.455 2°41.752 13.2 281 6.8 101280 61
2007-02-16 08:34:34 51°10.449 2°41.731 15.1 22 6.8 101270 61
2007-02-16 08:34:40 51°10.44 2°41.698 14.2 287 6.8 101270 61
2007-02-16 08:34:45 51°10.432 2°41.671 14 20 6.8 101260 61
2007-02-16 08:34:50 51°10.424 2°41.644 14.1 282 6.8 101260 61
2007-02-16 08:34:55 51°10.417 2°41.617 13.8 20 6.8 101280 61
2007-02-16 08:35:00 51°10.409 2°41.59 13.1 284 6.8 101280 61
2007-02-16 08:35:05 51°10.401 2°41.563 15.5 20 6.8 101270 61
2007-02-16 08:35:10 51°10.394 2°41.536 13.9 284 6.8 101270 61
2007-02-16 08:35:15 51°10.386 2°41.509 13.6 22 6.7 101270 61
2007-02-16 08:35:20 51°10.378 2°41.481 13.2 282 6.7 101270 61
2007-02-16 08:35:25 51°10.37 2°41.454 12.7 26 6.7 101270 62
2007-02-16 08:35:30 51°10.362 2°41.427 13.5 283 6.7 101270 62
2007-02-16 08:35:35 51°10.354 2°41.401 13.3 25 6.7 101260 62
2007-02-16 08:35:40 51°10.347 2°41.373 14.4 282 6.7 101260 62
2007-02-16 08:35:45 51°10.339 2°41.346 15.1 23 6.7 101270 62
2007-02-16 08:35:50 51°10.331 2°41.319 14.5 286 6.7 101270 62
2007-02-16 08:35:55 51°10.324 2°41.292 13.7 24 6.7 101270 62
2007-02-16 08:36:00 51°10.316 2°41.265 12.9 282 6.7 101270 62
2007-02-16 08:36:05 51°10.308 2°41.238 13.8 22 6.7 101270 62
2007-02-16 08:36:10 51°10.3 2°41.212 13.2 284 6.7 101270 62
2007-02-16 08:36:15 51°10.292 2°41.185 14.3 22 6.7 101280 62
2007-02-16 08:36:20 51°10.284 2°41.158 13.3 280 6.7 101280 62
2007-02-16 08:36:25 51°10.277 2°41.131 14.1 25 6.7 101270 62
2007-02-16 08:36:30 51°10.269 2°41.104 14.3 284 6.7 101270 62
2007-02-16 08:36:35 51°10.261 2°41.077 12.7 22 6.7 101270 62
2007-02-16 08:36:40 51°10.253 2°41.05 13.9 279 6.7 101270 62
2007-02-16 08:36:45 51°10.245 2°41.023 14.6 20 6.7 101270 62
2007-02-16 08:36:50 51°10.238 2°40.996 14.4 282 6.7 101270 62
2007-02-16 08:36:54 51°10.231 2°40.975 12.5 19 6.7 101260 62
2007-02-16 08:37:00 51°10.222 2°40.942 14 284 6.7 101260 62
2007-02-16 08:37:05 51°10.215 2°40.915 13.6 23 6.7 101260 62
2007-02-16 08:37:10 51°10.207 2°40.888 12.9 283 6.7 101260 62
2007-02-16 08:37:14 51°10.201 2°40.866 12.3 21 6.7 101260 62
2007-02-16 08:37:20 51°10.193 2°40.834 15.7 283 6.7 101260 62
2007-02-16 08:37:25 51°10.185 2°40.807 13.3 23 6.7 101270 63
2007-02-16 08:37:30 51°10.178 2°40.779 15.3 279 6.7 101270 63
2007-02-16 08:37:35 51°10.17 2°40.752 14.6 21 6.7 101270 63
2007-02-16 08:37:40 51°10.163 2°40.725 14.9 286 6.7 101270 63
2007-02-16 08:37:45 51°10.156 2°40.698 13.1 20 6.7 101260 63
2007-02-16 08:37:50 51°10.148 2°40.671 14.5 285 6.7 101260 63
2007-02-16 08:37:55 51°10.141 2°40.644 12.4 25 6.7 101260 63
2007-02-16 08:38:00 51°10.134 2°40.616 12.1 278 6.7 101260 63
2007-02-16 08:38:05 51°10.128 2°40.589 13.3 27 6.7 101250 62
2007-02-16 08:38:10 51°10.121 2°40.561 13.1 283 6.7 101250 62
2007-02-16 08:38:15 51°10.114 2°40.534 16.6 23 6.7 101270 63
2007-02-16 08:38:20 51°10.107 2°40.506 13.5 283 6.7 101270 63
2007-02-16 08:38:25 51°10.1 2°40.479 12.9 25 6.6 101270 63
2007-02-16 08:38:30 51°10.092 2°40.452 13 287 6.6 101270 63
2007-02-16 08:38:35 51°10.085 2°40.425 14.4 21 6.7 101270 63
2007-02-16 08:38:40 51°10.078 2°40.398 13.3 283 6.7 101270 63
2007-02-16 08:38:45 51°10.071 2°40.371 13.8 24 6.7 101250 63
2007-02-16 08:38:50 51°10.063 2°40.344 14 283 6.7 101250 63
2007-02-16 08:38:55 51°10.056 2°40.317 15.3 21 6.7 101250 63
2007-02-16 08:39:00 51°10.049 2°40.29 14.5 281 6.7 101250 63
2007-02-16 08:39:05 51°10.042 2°40.263 14.1 21 6.7 101260 63
2007-02-16 08:39:10 51°10.035 2°40.235 13 286 6.7 101260 63
2007-02-16 08:39:15 51°10.028 2°40.208 12.8 26 6.7 101260 63
2007-02-16 08:39:20 51°10.021 2°40.181 13.8 284 6.7 101260 63
2007-02-16 08:39:25 51°10.014 2°40.154 12.5 24 6.6 101260 63
2007-02-16 08:39:30 51°10.006 2°40.127 13.1 287 6.6 101260 63
2007-02-16 08:39:35 51°9.999 2°40.1 13.5 23 6.6 101280 63
2007-02-16 08:39:40 51°9.992 2°40.073 14 283 6.6 101280 63
2007-02-16 08:39:45 51°9.984 2°40.045 13.8 21 6.6 101280 64
2007-02-16 08:39:50 51°9.977 2°40.018 12.5 281 6.6 101280 64
2007-02-16 08:39:55 51°9.97 2°39.991 12.3 25 6.6 101270 64
2007-02-16 08:40:00 51°9.963 2°39.964 12.1 282 6.6 101270 64
2007-02-16 08:40:05 51°9.956 2°39.937 13.4 24 6.6 101280 63
2007-02-16 08:40:10 51°9.948 2°39.909 15.2 281 6.6 101280 63
2007-02-16 08:40:15 51°9.941 2°39.883 14 26 6.6 101280 63
2007-02-16 08:40:20 51°9.934 2°39.855 14.1 278 6.6 101280 63
2007-02-16 08:40:25 51°9.927 2°39.828 13.7 27 6.6 101270 64
2007-02-16 08:40:30 51°9.92 2°39.801 13.8 281 6.6 101270 64
2007-02-16 08:40:35 51°9.912 2°39.774 13.3 21 6.6 101280 64
2007-02-16 08:40:40 51°9.905 2°39.747 13.5 286 6.6 101280 64
2007-02-16 08:40:45 51°9.898 2°39.72 11.7 23 6.6 101270 63
2007-02-16 08:40:50 51°9.891 2°39.693 14.2 282 6.6 101270 63
2007-02-16 08:40:55 51°9.883 2°39.666 11.6 23 6.6 101280 63
2007-02-16 08:41:00 51°9.876 2°39.639 14 282 6.6 101280 63
2007-02-16 08:41:05 51°9.868 2°39.612 14.7 21 6.6 101280 64
2007-02-16 08:41:10 51°9.861 2°39.585 13.8 283 6.6 101280 64
2007-02-16 08:41:15 51°9.854 2°39.557 12.7 24 6.6 101270 64
2007-02-16 08:41:20 51°9.847 2°39.53 13.7 287 6.6 101270 64
2007-02-16 08:41:25 51°9.84 2°39.504 14.2 21 6.6 101270 63
2007-02-16 08:41:30 51°9.832 2°39.477 13.6 277 6.6 101270 63
2007-02-16 08:41:35 51°9.825 2°39.45 13 22 6.6 101280 63
2007-02-16 08:41:40 51°9.818 2°39.423 13.6 283 6.6 101280 63
2007-02-16 08:41:45 51°9.811 2°39.396 15.4 23 6.6 101270 63
2007-02-16 08:41:50 51°9.803 2°39.369 14.2 282 6.6 101270 63
2007-02-16 08:41:55 51°9.796 2°39.342 13.3 23 6.6 101270 63
2007-02-16 08:42:00 51°9.789 2°39.315 15.2 284 6.6 101270 63
2007-02-16 08:42:05 51°9.782 2°39.288 13.9 24 6.7 101270 63
2007-02-16 08:42:10 51°9.774 2°39.261 13.9 287 6.7 101270 63
2007-02-16 08:42:15 51°9.767 2°39.234 15.2 22 6.7 101270 63
2007-02-16 08:42:20 51°9.76 2°39.207 15.1 282 6.7 101270 63
2007-02-16 08:42:25 51°9.753 2°39.18 12.9 24 6.7 101260 64
2007-02-16 08:42:30 51°9.745 2°39.153 13.1 282 6.7 101260 64
2007-02-16 08:42:35 51°9.738 2°39.126 15 22 6.6 101270 63
2007-02-16 08:42:40 51°9.731 2°39.099 14.3 284 6.6 101270 63
2007-02-16 08:42:45 51°9.724 2°39.072 15.6 24 6.7 101270 63
2007-02-16 08:42:50 51°9.717 2°39.045 14.8 282 6.7 101270 63
2007-02-16 08:42:55 51°9.71 2°39.018 14.7 20 6.7 101270 63
2007-02-16 08:43:00 51°9.703 2°38.991 12.8 279 6.7 101270 63
2007-02-16 08:43:05 51°9.696 2°38.964 13.2 25 6.7 101260 63
2007-02-16 08:43:10 51°9.688 2°38.937 13.3 281 6.7 101260 63
2007-02-16 08:43:15 51°9.681 2°38.91 12.3 24 6.6 101270 62
2007-02-16 08:43:20 51°9.674 2°38.883 13.1 287 6.6 101270 62
2007-02-16 08:43:25 51°9.667 2°38.856 13.6 24 6.7 101270 63
2007-02-16 08:43:30 51°9.66 2°38.829 14.5 285 6.7 101270 63
2007-02-16 08:43:35 51°9.653 2°38.802 14.2 27 6.7 101270 63
2007-02-16 08:43:40 51°9.646 2°38.775 12.9 284 6.7 101270 63
2007-02-16 08:43:45 51°9.638 2°38.749 14.4 23 6.7 101270 63
2007-02-16 08:43:50 51°9.631 2°38.722 12.1 281 6.7 101270 63
2007-02-16 08:43:55 51°9.624 2°38.695 13.4 27 6.7 101270 63
2007-02-16 08:44:00 51°9.616 2°38.669 13.3 287 6.7 101270 63
2007-02-16 08:44:05 51°9.609 2°38.642 13.4 20 6.7 101270 63
2007-02-16 08:44:10 51°9.602 2°38.615 15.1 284 6.7 101270 63
2007-02-16 08:44:14 51°9.596 2°38.594 14 21 6.7 101260 63
2007-02-16 08:44:20 51°9.587 2°38.562 14.1 283 6.7 101260 63
2007-02-16 08:44:25 51°9.58 2°38.535 13.7 21 6.7 101270 63
2007-02-16 08:44:30 51°9.572 2°38.509 14.6 286 6.7 101270 63
2007-02-16 08:44:35 51°9.565 2°38.482 13.9 21 6.7 101270 63
2007-02-16 08:44:40 51°9.558 2°38.455 12.5 277 6.7 101270 63
2007-02-16 08:44:45 51°9.551 2°38.428 13.3 22 6.7 101270 63
2007-02-16 08:44:50 51°9.543 2°38.401 14.6 285 6.7 101270 63
2007-02-16 08:44:55 51°9.536 2°38.374 15.6 23 6.7 101270 63
2007-02-16 08:45:00 51°9.529 2°38.348 14.3 280 6.7 101270 63
2007-02-16 08:45:05 51°9.522 2°38.32 13.2 23 6.7 101270 63
2007-02-16 08:45:10 51°9.514 2°38.293 14.5 282 6.7 101270 63
2007-02-16 08:45:15 51°9.507 2°38.266 13.5 21 6.6 101270 63
2007-02-16 08:45:20 51°9.5 2°38.239 12.8 282 6.6 101270 63
2007-02-16 08:45:25 51°9.493 2°38.212 14 23 6.7 101260 63
2007-02-16 08:45:30 51°9.486 2°38.185 14.2 279 6.7 101260 63
2007-02-16 08:45:35 51°9.479 2°38.158 14 23 6.7 101270 63
2007-02-16 08:45:40 51°9.471 2°38.131 13 279 6.7 101270 63
2007-02-16 08:45:45 51°9.464 2°38.104 13.2 25 6.7 101270 64
2007-02-16 08:45:50 51°9.457 2°38.077 15 280 6.7 101270 64
2007-02-16 08:45:55 51°9.45 2°38.051 12.8 22 6.6 101260 63
2007-02-16 08:46:00 51°9.443 2°38.024 12.7 279 6.6 101260 63
2007-02-16 08:46:05 51°9.436 2°37.997 13 25 6.6 101280 63
2007-02-16 08:46:10 51°9.429 2°37.97 15.1 285 6.6 101280 63
2007-02-16 08:46:15 51°9.421 2°37.943 14.3 24 6.7 101280 63
2007-02-16 08:46:20 51°9.414 2°37.916 12.9 284 6.7 101280 63
2007-02-16 08:46:25 51°9.407 2°37.889 13 21 6.7 101270 64
2007-02-16 08:46:30 51°9.4 2°37.862 13.1 287 6.7 101270 64
2007-02-16 08:46:35 51°9.394 2°37.835 12.5 24 6.7 101270 63
2007-02-16 08:46:40 51°9.387 2°37.807 13.8 282 6.7 101270 63
2007-02-16 08:46:45 51°9.381 2°37.78 13.4 21 6.7 101280 64
2007-02-16 08:46:50 51°9.375 2°37.752 13.3 283 6.7 101280 64
2007-02-16 08:46:55 51°9.369 2°37.725 13.3 19 6.7 101280 63
2007-02-16 08:47:00 51°9.363 2°37.697 12.2 280 6.7 101280 63
2007-02-16 08:47:05 51°9.356 2°37.67 12.1 20 6.7 101270 63
2007-02-16 08:47:10 51°9.35 2°37.642 12.4 280 6.7 101270 63
2007-02-16 08:47:15 51°9.344 2°37.615 12 25 6.7 101280 63
2007-02-16 08:47:20 51°9.337 2°37.587 13.6 286 6.7 101280 63
2007-02-16 08:47:25 51°9.331 2°37.56 13 20 6.7 101280 63
2007-02-16 08:47:30 51°9.325 2°37.533 14.4 283 6.7 101280 63
2007-02-16 08:47:35 51°9.318 2°37.505 14.3 21 6.7 101270 64
2007-02-16 08:47:40 51°9.312 2°37.478 13.9 278 6.7 101270 64
2007-02-16 08:47:45 51°9.306 2°37.45 12.6 23 6.7 101270 64
2007-02-16 08:47:50 51°9.3 2°37.423 11.7 281 6.7 101270 64
2007-02-16 08:47:55 51°9.294 2°37.395 12.5 24 6.7 101260 63
2007-02-16 08:48:00 51°9.287 2°37.368 11.8 283 6.7 101260 63
2007-02-16 08:48:05 51°9.281 2°37.34 15.1 22 6.7 101280 63
2007-02-16 08:48:10 51°9.275 2°37.313 16.2 286 6.7 101280 63
2007-02-16 08:48:15 51°9.269 2°37.285 13.2 24 6.7 101270 63
2007-02-16 08:48:20 51°9.262 2°37.258 14.2 280 6.7 101270 63
2007-02-16 08:48:25 51°9.256 2°37.231 13.6 22 6.7 101280 64
2007-02-16 08:48:30 51°9.25 2°37.203 14.4 286 6.7 101280 64
2007-02-16 08:48:35 51°9.244 2°37.176 14.4 24 6.7 101260 63
2007-02-16 08:48:40 51°9.237 2°37.148 14.9 286 6.7 101260 63
2007-02-16 08:48:45 51°9.231 2°37.12 12.8 25 6.8 101280 63
2007-02-16 08:48:50 51°9.225 2°37.093 13.5 282 6.8 101280 63
2007-02-16 08:48:54 51°9.22 2°37.071 13 23 6.7 101260 62
2007-02-16 08:49:00 51°9.213 2°37.038 13 285 6.7 101260 62
2007-02-16 08:49:05 51°9.206 2°37.011 13.5 20 6.8 101270 62
2007-02-16 08:49:10 51°9.2 2°36.983 16 282 6.8 101270 62
2007-02-16 08:49:15 51°9.194 2°36.956 16.2 22 6.8 101280 63
2007-02-16 08:49:20 51°9.188 2°36.928 14.7 278 6.8 101280 63
2007-02-16 08:49:25 51°9.181 2°36.901 14.1 22 6.8 101270 63
2007-02-16 08:49:30 51°9.175 2°36.873 14.2 285 6.8 101270 63
2007-02-16 08:49:35 51°9.169 2°36.846 16 20 6.8 101270 62
2007-02-16 08:49:40 51°9.163 2°36.818 13.3 280 6.8 101270 62
2007-02-16 08:49:45 51°9.156 2°36.791 13.5 25 6.8 101280 62
2007-02-16 08:49:50 51°9.15 2°36.763 13.5 284 6.8 101280 62
2007-02-16 08:49:55 51°9.144 2°36.736 15.4 22 6.8 101270 62
2007-02-16 08:50:00 51°9.138 2°36.708 14.9 284 6.8 101270 62
2007-02-16 08:50:05 51°9.132 2°36.681 14.1 21 6.8 101270 62
2007-02-16 08:50:10 51°9.125 2°36.654 12.7 286 6.8 101270 62
2007-02-16 08:50:15 51°9.119 2°36.626 12.6 23 6.8 101270 62
2007-02-16 08:50:20 51°9.112 2°36.599 12.8 283 6.8 101270 62
2007-02-16 08:50:25 51°9.106 2°36.572 12.2 19 6.8 101260 62
2007-02-16 08:50:30 51°9.1 2°36.544 14 282 6.8 101260 62
2007-02-16 08:50:35 51°9.095 2°36.517 13.4 25 6.9 101260 62
2007-02-16 08:50:40 51°9.088 2°36.489 15.7 281 6.9 101260 62
2007-02-16 08:50:45 51°9.082 2°36.462 13.5 24 6.9 101260 63
2007-02-16 08:50:50 51°9.076 2°36.435 12.6 279 6.9 101260 63
2007-02-16 08:50:55 51°9.07 2°36.407 13.2 22 6.9 101260 63
2007-02-16 08:51:00 51°9.064 2°36.38 12.8 278 6.9 101260 63
2007-02-16 08:51:05 51°9.058 2°36.353 12.2 22 6.9 101260 62
2007-02-16 08:51:10 51°9.051 2°36.326 13.8 281 6.9 101260 62
2007-02-16 08:51:15 51°9.045 2°36.298 13.5 23 6.9 101250 63
2007-02-16 08:51:20 51°9.039 2°36.271 12.6 283 6.9 101250 63
2007-02-16 08:51:25 51°9.033 2°36.244 13.2 21 6.9 101260 63
2007-02-16 08:51:30 51°9.027 2°36.216 13.8 281 6.9 101260 63
2007-02-16 08:51:35 51°9.021 2°36.189 13.9 19 6.9 101250 62
2007-02-16 08:51:40 51°9.015 2°36.162 14.8 286 6.9 101250 62
2007-02-16 08:51:45 51°9.008 2°36.135 15.3 23 6.9 101250 63
2007-02-16 08:51:50 51°9.002 2°36.108 11.6 282 6.9 101250 63
2007-02-16 08:51:55 51°8.996 2°36.083 14.7 20 6.9 101250 62
2007-02-16 08:52:00 51°8.99 2°36.059 14.4 283 6.9 101250 62
2007-02-16 08:52:05 51°8.985 2°36.037 13.6 22 6.8 101240 62
2007-02-16 08:52:10 51°8.98 2°36.016 13.8 284 6.8 101240 62
2007-02-16 08:52:15 51°8.976 2°35.997 12.2 248 6.9 101260 63
2007-02-16 08:52:20 51°8.973 2°35.979 12.8 281 6.9 101260 63
2007-02-16 08:52:25 51°8.972 2°35.962 14 255 6.9 101270 63
2007-02-16 08:52:30 51°8.972 2°35.946 12.4 287 6.9 101270 63
2007-02-16 08:52:35 51°8.974 2°35.931 10.4 261 6.8 101260 62
2007-02-16 08:52:40 51°8.977 2°35.918 7.9 284 6.8 101260 62
2007-02-16 08:52:45 51°8.98 2°35.906 10.4 29 6.8 101280 63
2007-02-16 08:52:50 51°8.985 2°35.895 8.3 80 6.8 101280 63
2007-02-16 08:52:54 51°8.989 2°35.887 8.4 21 6.8 101300 63
2007-02-16 08:53:00 51°8.996 2°35.877 8.1 76 6.8 101300 63
2007-02-16 08:53:05 51°9.002 2°35.871 8.5 19 6.9 101320 63
2007-02-16 08:53:10 51°9.008 2°35.865 7.2 76 6.9 101320 63
2007-02-16 08:53:15 51°9.015 2°35.861 7.6 23 6.8 101310 62
2007-02-16 08:53:20 51°9.021 2°35.858 4.8 79 6.8 101310 62
2007-02-16 08:53:25 51°9.028 2°35.856 6.3 23 6.8 101310 63
2007-02-16 08:53:30 51°9.035 2°35.855 6.3 79 6.8 101310 63
2007-02-16 08:53:35 51°9.042 2°35.855 7.7 41 6.9 101310 64
2007-02-16 08:53:40 51°9.049 2°35.855 7.4 44 6.9 101310 64
2007-02-16 08:53:45 51°9.055 2°35.857 7.6 39 6.9 101300 64
2007-02-16 08:53:50 51°9.062 2°35.859 8.1 38 6.9 101300 64
2007-02-16 08:53:55 51°9.068 2°35.863 7.4 35 7 101300 63
2007-02-16 08:54:00 51°9.074 2°35.868 8 29 7 101300 63
2007-02-16 08:54:05 51°9.08 2°35.873 11.1 31 6.9 101300 63
2007-02-16 08:54:10 51°9.086 2°35.879 10.4 30 6.9 101300 63
2007-02-16 08:54:15 51°9.091 2°35.885 9.3 33 7 101290 63
2007-02-16 08:54:20 51°9.096 2°35.892 10.2 27 7 101290 63
2007-02-16 08:54:25 51°9.101 2°35.9 10.3 25 6.9 101280 63
2007-02-16 08:54:30 51°9.106 2°35.908 10.9 25 6.9 101280 63
2007-02-16 08:54:35 51°9.111 2°35.916 10.1 26 6.9 101280 62
2007-02-16 08:54:40 51°9.116 2°35.924 10.3 26 6.9 101280 62
2007-02-16 08:54:45 51°9.121 2°35.932 9.5 23 6.9 101280 62
2007-02-16 08:54:50 51°9.126 2°35.941 9.4 21 6.9 101280 62
2007-02-16 08:54:55 51°9.131 2°35.95 9.4 17 6.9 101280 62
2007-02-16 08:55:00 51°9.136 2°35.959 10.5 22 6.9 101280 62
2007-02-16 08:55:05 51°9.141 2°35.968 11 27 6.9 101280 62
2007-02-16 08:55:10 51°9.147 2°35.978 10.2 20 6.9 101280 62
2007-02-16 08:55:15 51°9.153 2°35.987 9.2 24 6.9 101280 63
2007-02-16 08:55:20 51°9.159 2°35.996 10.2 29 6.9 101280 63
2007-02-16 08:55:25 51°9.165 2°36.005 8.5 29 6.9 101280 63
2007-02-16 08:55:30 51°9.171 2°36.014 7.7 27 6.9 101280 63
2007-02-16 08:55:35 51°9.177 2°36.023 9 28 6.9 101280 63
2007-02-16 08:55:40 51°9.184 2°36.032 8 26 6.9 101280 63
2007-02-16 08:55:45 51°9.19 2°36.042 8.3 27 6.9 101290 63
2007-02-16 08:55:50 51°9.197 2°36.051 9.7 25 6.9 101290 63
2007-02-16 08:55:55 51°9.204 2°36.06 9.6 23 6.8 101290 63
2007-02-16 08:56:00 51°9.21 2°36.069 8.3 28 6.8 101290 63
2007-02-16 08:56:05 51°9.217 2°36.078 9.4 25 6.9 101290 64
2007-02-16 08:56:10 51°9.224 2°36.087 8.9 26 6.9 101290 64
2007-02-16 08:56:15 51°9.231 2°36.096 9.3 30 6.8 101290 63
2007-02-16 08:56:20 51°9.237 2°36.105 8.2 28 6.8 101290 63
2007-02-16 08:56:25 51°9.244 2°36.114 9.3 26 6.8 101290 63
2007-02-16 08:56:30 51°9.25 2°36.123 9.8 25 6.8 101290 63
2007-02-16 08:56:35 51°9.255 2°36.132 10.7 25 6.8 101290 63
2007-02-16 08:56:40 51°9.261 2°36.141 11.3 24 6.8 101290 63
2007-02-16 08:56:45 51°9.266 2°36.149 11.6 26 6.8 101290 64
2007-02-16 08:56:50 51°9.27 2°36.158 10.8 25 6.8 101290 64
2007-02-16 08:56:55 51°9.275 2°36.166 9.2 23 6.9 101280 64
2007-02-16 08:57:00 51°9.279 2°36.174 8.4 24 6.9 101280 64
2007-02-16 08:57:05 51°9.283 2°36.182 9.1 33 6.8 101280 63
2007-02-16 08:57:10 51°9.287 2°36.189 10.2 27 6.8 101280 63
2007-02-16 08:57:15 51°9.291 2°36.196 9.8 28 6.8 101270 62
2007-02-16 08:57:20 51°9.295 2°36.203 9.5 26 6.8 101270 62
2007-02-16 08:57:25 51°9.299 2°36.209 9.8 29 6.8 101280 63
2007-02-16 08:57:30 51°9.303 2°36.215 10.5 27 6.8 101280 63
2007-02-16 08:57:35 51°9.307 2°36.221 10.1 29 6.8 101280 64
2007-02-16 08:57:40 51°9.31 2°36.226 10.6 29 6.8 101280 64
2007-02-16 08:57:45 51°9.314 2°36.231 9.8 27 6.9 101290 64
2007-02-16 08:57:50 51°9.316 2°36.235 12.2 29 6.9 101290 64
2007-02-16 08:57:55 51°9.318 2°36.239 12.1 25 6.8 101280 63
2007-02-16 08:58:00 51°9.321 2°36.242 11 25 6.8 101280 63
2007-02-16 08:58:05 51°9.322 2°36.245 11.9 20 6.8 101280 63
2007-02-16 08:58:10 51°9.324 2°36.247 11.6 21 6.8 101280 63
2007-02-16 08:58:15 51°9.325 2°36.249 11.4 22 6.8 101280 63
2007-02-16 08:58:20 51°9.326 2°36.25 11.4 23 6.8 101280 63
2007-02-16 08:58:25 51°9.327 2°36.25 11 23 6.8 101280 62
2007-02-16 08:58:30 51°9.328 2°36.251 11.8 18 6.8 101280 62
2007-02-16 08:58:35 51°9.329 2°36.251 11.1 20 6.8 101280 61
2007-02-16 08:58:40 51°9.33 2°36.251 11.1 19 6.8 101280 61
2007-02-16 08:58:45 51°9.331 2°36.252 10.8 24 6.8 101280 61
2007-02-16 08:58:50 51°9.332 2°36.252 11.2 22 6.8 101280 61
2007-02-16 08:58:55 51°9.333 2°36.252 10.6 22 6.8 101280 61
2007-02-16 08:59:00 51°9.334 2°36.253 11.6 21 6.8 101280 61
2007-02-16 08:59:05 51°9.335 2°36.253 11.6 27 6.8 101270 61
2007-02-16 08:59:10 51°9.337 2°36.254 10.6 32 6.8 101270 61
2007-02-16 08:59:15 51°9.338 2°36.254 10.3 28 6.8 101280 62
2007-02-16 08:59:20 51°9.339 2°36.254 10.4 25 6.8 101280 62
2007-02-16 08:59:25 51°9.34 2°36.255 11.1 26 6.9 101280 62
2007-02-16 08:59:30 51°9.341 2°36.255 11.8 27 6.9 101280 62
2007-02-16 08:59:35 51°9.342 2°36.255 11.4 28 6.8 101280 63
2007-02-16 08:59:40 51°9.343 2°36.256 11.7 28 6.8 101280 63
2007-02-16 08:59:45 51°9.344 2°36.256 10.7 30 6.8 101270 62
2007-02-16 08:59:50 51°9.345 2°36.256 10.2 27 6.8 101270 62
2007-02-16 08:59:54 51°9.346 2°36.257 11.6 29 6.8 101270 61
2007-02-16 09:00:00 51°9.348 2°36.257 9.8 29 6.8 101270 61
2007-02-16 09:00:05 51°9.349 2°36.257 11.2 30 6.8 101270 61
2007-02-16 09:00:10 51°9.35 2°36.258 11.4 30 6.8 101270 61
2007-02-16 09:00:15 51°9.351 2°36.258 10.7 29 6.9 101280 62
2007-02-16 09:00:20 51°9.352 2°36.258 10.2 30 6.9 101280 62
2007-02-16 09:00:25 51°9.353 2°36.259 11.3 28 6.9 101280 62
2007-02-16 09:00:30 51°9.354 2°36.259 9.9 28 6.9 101280 62
2007-02-16 09:00:35 51°9.355 2°36.26 9.4 32 6.8 101280 61
2007-02-16 09:00:40 51°9.356 2°36.26 10.8 27 6.8 101280 61
2007-02-16 09:00:45 51°9.358 2°36.261 10.9 31 6.8 101280 60
2007-02-16 09:00:50 51°9.359 2°36.261 10.8 31 6.8 101280 60
2007-02-16 09:00:55 51°9.36 2°36.261 9.4 31 6.8 101280 61
2007-02-16 09:01:00 51°9.361 2°36.262 9.9 30 6.8 101280 61
2007-02-16 09:01:05 51°9.362 2°36.262 10.8 28 6.8 101280 61
2007-02-16 09:01:10 51°9.363 2°36.263 10.8 31 6.8 101280 61
2007-02-16 09:01:15 51°9.364 2°36.263 10 30 6.9 101280 61
2007-02-16 09:01:20 51°9.365 2°36.264 10.2 30 6.9 101280 61
2007-02-16 09:01:25 51°9.366 2°36.264 9.9 26 6.9 101280 63
2007-02-16 09:01:30 51°9.368 2°36.265 10.9 29 6.9 101280 63
2007-02-16 09:01:35 51°9.369 2°36.265 11.4 29 6.9 101280 63